x

Nw Lake Ontario Ajax (45159) Wave Buoy

3:00pm - Mon 24th Nov 2014 All times are CST. -6 hours from GMT.

  • Sig Wave height 5.2ft
  • Peak Period 5s
  • Wind
    25mph, 29mph gusts
  • Sea Temp 41°f
  • Air Temp 49°f
  • Sea Pressure 990.3mb
  • Nw Lake Ontario Ajax
  • Nw Lake Ontario Ajax

More Historic Weather Station data

Upgrade to MSW Pro to gain access to the past 30 days of data for over 8000 Wavebouys and Weather Stations around the globe.

Join Pro

Comparision Forecast

View Surf forecast
   
Mon 11/24 3:00pm 5ft 5s 25 29 mph 990.3mb 41f 49f
2:00pm 4.5ft 5s 22 27 mph 989.6mb 41f 49f
1:00pm 3.5ft 5s 27 34 mph 988.7mb 41f 50f
12:00pm 3.5ft 5s 20 22 mph 987.5mb 41f 51f
11:00am 4.5ft 5s 18
mph
988.2mb 41f 50f
10:00am 5ft 5s 20 22 mph 989.1mb 41f 50f
9:00am 5.5ft 5s 22 27 mph 989.5mb 41f 51f
8:00am 5.5ft 5s 20 22 mph 989.7mb 41f 51f
7:00am 4.5ft 5s 25 29 mph 989.1mb 41f 52f
6:00am 3.5ft 5s 22 27 mph 989.2mb 41f 51f
5:00am 3.5ft 5s 13 18 mph 989.4mb 41f 47f
4:00am 4.5ft 5s 11 16 mph 990.9mb 41f 45f
3:00am 4.5ft 5s 18 22 mph 992.1mb 41f 44f
2:00am 3.5ft 4s 20 27 mph 993.8mb 41f 44f
1:00am 3ft 4s 20 22 mph 996.3mb 41f 43f
12:00am 2.5ft 4s 18 22 mph 999.3mb 41f 43f
Sun 11/23 11:00pm 2.5ft 4s 18 20 mph 1002mb 41f 44f
10:00pm 2.5ft 4s 18 20 mph 1003.8mb 41f 44f
9:00pm 1.6ft 3s 18 25 mph 1005.2mb 41f 43f
8:00pm 1ft 3s 16 20 mph 1006.7mb 41f 43f
7:00pm 1ft 2s 11 13 mph 1008.7mb 41f 43f
6:00pm 0.7ft 2s 11 13 mph 1009.5mb 41f 44f
5:00pm 0.7ft 4s 11 13 mph 1010.4mb 41f 44f
4:00pm 1ft 4s 7 9 mph 1011.5mb 41f 43f
3:00pm 1ft 4s 4 7 mph 1012.2mb 41f 43f
2:00pm 0.7ft 3s  -  2 mph 1013mb 41f 44f
1:00pm 0.7ft 3s 7
mph
1014.2mb 41f 43f
12:00pm 0.7ft 2s 4
mph
1014.9mb 41f 43f
11:00am 0.7ft 2s 11 13 mph 1016.1mb 41f 44f
10:00am 0.7ft 3s 11 13 mph 1016.3mb 41f 44f
9:00am 0.7ft 4s 7
mph
1016.3mb 41f 43f
8:00am 1ft 4s 4 7 mph 1016.6mb 41f 44f
7:00am 1ft 3s 4
mph
1016.3mb 41f 43f
6:00am 1ft 4s 7 9 mph 1015.9mb 41f 43f
5:00am 1.3ft 4s 7 9 mph 1015.3mb 41f 43f
4:00am 1.6ft 4s 7 9 mph 1015.2mb 41f 42f
3:00am 2ft 4s 9
mph
1014.8mb 41f 43f
2:00am 2.5ft 4s 13
mph
1014.8mb 41f 43f
1:00am 2.5ft 4s 16 18 mph 1014.6mb 41f 43f
12:00am 2.5ft 4s 18 20 mph 1014.3mb 41f 43f
Sat 11/22 11:00pm 2ft 4s 18 22 mph 1014.1mb 41f 44f
10:00pm 2ft 4s 16 18 mph 1014mb 41f 43f
9:00pm 2.5ft 4s 16 18 mph 1013.9mb 41f 42f
8:00pm 2.5ft 4s 18 22 mph 1014.1mb 41f 43f
7:00pm 3.5ft 4s 18 22 mph 1014.1mb 41f 43f
6:00pm 3.5ft 5s 20 25 mph 1013.9mb 40f 42f
5:00pm 4.5ft 5s 25 29 mph 1014.2mb 40f 42f
4:00pm 4.5ft 5s 25 29 mph 1014.1mb 40f 42f
3:00pm 5ft 5s 25 31 mph 1014.3mb 40f 41f
2:00pm 5ft 5s 25 29 mph 1014.6mb 40f 40f
1:00pm 5ft 5s 29 31 mph 1014.8mb 40f 40f
12:00pm 5.5ft 5s 29 34 mph 1015.9mb 40f 40f
11:00am 5ft 5s 29 34 mph 1016.8mb 40f 39f
10:00am 4.5ft 5s 27 34 mph 1018.2mb 40f 40f
9:00am 4.5ft 5s 22 29 mph 1019.7mb 40f 39f
8:00am 4.5ft 5s 25 29 mph 1020.9mb 40f 37f
7:00am 5ft 5s 25 31 mph 1021.8mb 40f 37f
6:00am 5ft 5s 27 31 mph 1022.8mb 40f 36f
5:00am 5ft 5s 27 31 mph 1023.5mb 40f 35f
4:00am 5ft 5s 31 36 mph 1024.1mb 40f 35f
3:00am 5ft 5s 29 36 mph 1025.2mb 40f 34f
2:00am 3.5ft 4s 27 36 mph 1026.2mb 40f 33f
1:00am 3.5ft 4s 22 27 mph 1027.1mb 40f 31f
12:00am 2.5ft 4s 20 25 mph 1027.9mb 40f 30f
Fri 11/21 11:00pm 3ft 4s 22 27 mph 1028.6mb 40f 29f
10:00pm 2.5ft 4s 20 27 mph 1029.3mb 40f 28f
9:00pm 2.5ft 4s 20 25 mph 1029.8mb 40f 27f
8:00pm 2.5ft 4s 18 22 mph 1030.5mb 40f 27f
7:00pm 2.5ft 4s 20 25 mph 1031.2mb 40f 27f
6:00pm 2.5ft 4s 18 25 mph 1031.1mb 40f 28f
5:00pm 2.5ft 4s 22 27 mph 1031.1mb 40f 28f
4:00pm 2.5ft 4s 20 25 mph 1030.5mb 40f 30f
3:00pm 1.6ft 3s 22 27 mph 1030.1mb 40f 30f
2:00pm 1.3ft 3s 18 22 mph 1029.9mb 40f 30f
1:00pm 1ft 2s 16 20 mph 1029.5mb 40f 30f
12:00pm 0.3ft 3s 13 16 mph 1029.4mb 40f 29f
11:00am 0.3ft 4s 9 13 mph 1029.5mb 40f 27f
10:00am 0.7ft 4s 9 13 mph 1029.6mb 40f 25f
9:00am 0.7ft 4s 9 11 mph 1028.9mb 40f 23f
8:00am 1ft 2s 11 13 mph 1028.1mb 40f 22f
7:00am 1.3ft 4s 16 20 mph 1026.9mb 40f 22f
6:00am 1.6ft 5s 16 18 mph 1025.4mb 40f 23f
5:00am 1.6ft 5s 13 18 mph 1023.7mb 40f 23f
4:00am 2ft 5s 11 16 mph 1021.9mb 40f 24f
3:00am 2.5ft 5s 18 22 mph 1020.1mb 40f 25f
2:00am 3.5ft 5s 18 25 mph 1018.6mb 40f 26f
1:00am 3.5ft 5s 22 25 mph 1017.4mb 40f 26f
12:00am 3.5ft 5s 22 29 mph 1016.6mb 40f 26f
Thu 11/20 11:00pm 3.5ft 5s 25 31 mph 1015.8mb 40f 26f